Etusivu
METAR-TAF:

METAR-TAF

Lentoasemat :

Ouagadougou, Burkina Faso

Ouagadougoun kansainvälinen lentoasema

Leveyspiiri: 12-21N, Pituuspiiri: 001-31W, korkeus merenpinnasta: 316 m

Tämänhetkinen sää

Tämä raportti tehtiin 46 minuuttia sitten, kello 07.00 UTC
Tuuli 2 kn eri suunnista
Lämpötila 26°C
Kosteus 70%
Ilmanpaine 1012 hPa
Näkyvyys: 4500 m
usvaa

METAR: DFFD 240700Z VRB02KT 4500 HZ NSC 26/20 Q1012 BECMG 6000 NSW

Aika: 07:46 (07:46 UTC)

Sääennuste

Tämä raportti tehtiin 2 tuntia ja 46 minuuttia sitten, kello 05.00 UTC
Ennuste voimassa 24. päivästä klo 06 UTC - 25. päivään klo 12 UTC
Tuuli 8 kn eri suunnista
Näkyvyys: 8000 m
Ajoittain
24. päivästä klo 06 UTC - 24. päivään klo 10 UTC
Näkyvyys: 3500 m
usvaa
Ajoittain
24. päivästä klo 17 UTC - 24. päivään klo 20 UTC
Näkyvyys: 4000 m
usvaa

TAF: DFFD 240500Z 2406/2512 VRB08KT 8000 NSC TEMPO 2406/2410 3500 HZ TEMPO 2417/2420 4000 HZ

Säähavainnot ja -ennusteet yli 4000 lentoasemalta (METAR- ja TAF-raportit).

Käytössä olevat sääasemat on merkitty karttaan keltaisilla ja punaisilla pisteillä.

Aseta hiiri pisteen päälle nähdäksesi sääaseman nimen.

Klikkaa sitten nähdäksesi säähavainnot ja -ennusteet.

Kartan vaihtaminen: klikkaa mustalla rastilla varustettuja vihreitä pisteitä, niin voit zoomata sisään; viivalla varustettua vihreää pistettä, niin voit zoomata ulos tai vihreitä nuolia, niin pääset viereisille kartoille.


METAR-TAF: